TimeEDT,TemperatureF,Dew PointF,Humidity,Sea Level PressureIn,VisibilityMPH,Wind Direction,Wind SpeedMPH,Gust SpeedMPH,PrecipitationIn,Events,Conditions,WindDirDegrees,DateUTC
12:54 AM,27.0,10.9,51,30.00,10.0,WNW,13.8,23.0,N/A,,Overcast,300,2013-04-02 04:54:00
1:54 AM,26.1,12.9,58,29.99,10.0,WNW,16.1,-,N/A,,Overcast,290,2013-04-02 05:54:00
2:54 AM,25.0,12.0,58,29.98,10.0,West,17.3,-,N/A,,Partly Cloudy,280,2013-04-02 06:54:00
3:54 AM,23.0,12.9,65,29.99,10.0,WNW,13.8,-,N/A,,Scattered Clouds,300,2013-04-02 07:54:00
4:54 AM,23.0,14.0,68,29.99,10.0,NW,15.0,-,N/A,,Overcast,310,2013-04-02 08:54:00
5:49 AM,23.0,15.8,74,29.93,10.0,NW,12.7,-,N/A,,Overcast,310,2013-04-02 09:49:00
5:54 AM,21.9,14.0,72,30.02,10.0,NW,13.8,-,N/A,,Overcast,310,2013-04-02 09:54:00
6:54 AM,21.9,14.0,72,30.04,9.0,WNW,16.1,-,0.00,,Overcast,300,2013-04-02 10:54:00
7:05 AM,21.2,15.8,80,29.96,10.0,WNW,16.1,-,N/A,,Overcast,300,2013-04-02 11:05:00
7:32 AM,21.2,15.8,80,29.98,1.8,NW,17.3,-,0.00,Snow,Light Snow,310,2013-04-02 11:32:00
7:42 AM,21.2,15.8,80,29.98,3.0,WNW,13.8,-,0.00,Snow,Light Snow,300,2013-04-02 11:42:00
7:54 AM,21.0,15.1,78,30.07,4.0,WNW,17.3,24.2,0.00,Snow,Light Snow,300,2013-04-02 11:54:00
7:59 AM,21.2,15.8,80,29.99,1.5,NW,18.4,-,0.00,Snow,Light Snow,310,2013-04-02 11:59:00
8:13 AM,21.2,15.8,80,30.00,3.0,WNW,13.8,-,0.00,Snow,Light Snow,300,2013-04-02 12:13:00
8:34 AM,21.2,14.0,74,30.01,10.0,WNW,17.3,-,0.00,,Overcast,300,2013-04-02 12:34:00
8:54 AM,21.9,14.0,72,30.10,10.0,WNW,16.1,-,0.00,,Overcast,290,2013-04-02 12:54:00
9:05 AM,21.2,12.2,68,30.02,10.0,WNW,12.7,-,N/A,,Overcast,300,2013-04-02 13:05:00
9:31 AM,21.2,14.0,74,30.02,1.5,WNW,15.0,21.9,0.00,Snow,Light Snow,300,2013-04-02 13:31:00
9:43 AM,21.2,15.8,80,30.03,0.5,WNW,13.8,-,0.00,Snow,Snow,300,2013-04-02 13:43:00
9:54 AM,21.9,17.1,82,30.12,2.0,WNW,12.7,-,0.00,Snow,Light Snow,290,2013-04-02 13:54:00
10:01 AM,23.0,15.8,74,30.02,9.0,WNW,13.8,-,0.00,Snow,Light Snow,290,2013-04-02 14:01:00
10:22 AM,24.8,14.0,64,30.03,9.0,West,18.4,26.5,0.00,,Overcast,280,2013-04-02 14:22:00
10:54 AM,25.0,12.0,58,30.12,10.0,West,18.4,25.3,0.00,,Mostly Cloudy,280,2013-04-02 14:54:00
11:54 AM,26.1,10.9,53,30.12,10.0,West,19.6,26.5,N/A,,Overcast,280,2013-04-02 15:54:00
12:54 PM,28.0,10.9,49,30.11,10.0,WNW,20.7,27.6,N/A,,Mostly Cloudy,290,2013-04-02 16:54:00
1:54 PM,30.0,12.0,47,30.10,10.0,West,16.1,27.6,N/A,,Scattered Clouds,280,2013-04-02 17:54:00
2:54 PM,30.9,12.0,46,30.09,10.0,West,24.2,31.1,N/A,,Overcast,270,2013-04-02 18:54:00
3:54 PM,30.9,10.9,43,30.10,10.0,WNW,23.0,29.9,N/A,,Mostly Cloudy,290,2013-04-02 19:54:00
4:54 PM,30.0,10.0,43,30.10,10.0,WNW,18.4,25.3,N/A,,Mostly Cloudy,290,2013-04-02 20:54:00
5:54 PM,30.0,9.0,41,30.11,10.0,WNW,16.1,-,N/A,,Overcast,290,2013-04-02 21:54:00
6:54 PM,30.0,10.0,43,30.13,10.0,WNW,17.3,-,N/A,,Overcast,300,2013-04-02 22:54:00
7:54 PM,28.9,10.0,45,30.15,10.0,WNW,15.0,20.7,N/A,,Overcast,290,2013-04-02 23:54:00
8:54 PM,28.0,9.0,45,30.16,10.0,WNW,15.0,19.6,N/A,,Mostly Cloudy,290,2013-04-03 00:54:00
9:54 PM,27.0,9.0,47,30.18,10.0,WNW,10.4,-,N/A,,Partly Cloudy,290,2013-04-03 01:54:00
10:54 PM,25.0,8.1,49,30.18,10.0,WNW,9.2,-,N/A,,Scattered Clouds,300,2013-04-03 02:54:00
11:54 PM,24.1,7.0,48,30.17,10.0,West,4.6,-,N/A,,Clear,280,2013-04-03 03:54:00